createdAt,value
2023-02-24T00:00:41.730Z,100342.63
2023-02-24T00:03:08.450Z,100337.78
2023-02-24T00:05:35.160Z,100335.56
2023-02-24T00:08:01.627Z,100332.16
2023-02-24T00:10:28.073Z,100336.16
2023-02-24T00:12:54.503Z,100325.84
2023-02-24T00:15:21.036Z,100327.41
2023-02-24T00:17:47.816Z,100328.31
2023-02-24T00:20:14.238Z,100327.47
2023-02-24T00:22:40.869Z,100325.28
2023-02-24T00:25:07.297Z,100321.69
2023-02-24T00:27:33.640Z,100320.88
2023-02-24T00:29:59.975Z,100316.56
2023-02-24T00:32:26.897Z,100316.56
2023-02-24T00:34:53.559Z,100311.41
2023-02-24T00:37:20.122Z,100312.22
2023-02-24T00:39:46.692Z,100310.34
2023-02-24T00:42:13.333Z,100311.19
2023-02-24T00:44:40.014Z,100301.97
2023-02-24T00:47:06.586Z,100301.13
2023-02-24T00:49:33.060Z,100300.34
2023-02-24T00:51:59.676Z,100303.25
2023-02-24T00:54:26.043Z,100305.84
2023-02-24T00:56:52.372Z,100289.69
2023-02-24T00:59:19.028Z,100298.59
2023-02-24T01:01:45.426Z,100298.59
2023-02-24T01:04:12.102Z,100292.06
2023-02-24T01:06:38.994Z,100293.69
2023-02-24T01:09:05.991Z,100296.91
2023-02-24T01:11:32.616Z,100288.00
2023-02-24T01:13:59.042Z,100283.44
2023-02-24T01:16:25.408Z,100285.56
2023-02-24T01:18:51.836Z,100279.25
2023-02-24T01:21:18.369Z,100279.63
2023-02-24T01:23:44.998Z,100280.91
2023-02-24T01:26:11.346Z,100275.53
2023-02-24T01:28:37.697Z,100269.91
2023-02-24T01:31:04.101Z,100268.25
2023-02-24T01:33:30.458Z,100265.00
2023-02-24T01:35:56.720Z,100258.25
2023-02-24T01:38:23.058Z,100262.81
2023-02-24T01:40:49.475Z,100261.19
2023-02-24T01:43:15.824Z,100258.41
2023-02-24T01:45:42.184Z,100257.34
2023-02-24T01:48:08.586Z,100254.41
2023-02-24T01:50:34.879Z,100254.66
2023-02-24T01:53:01.218Z,100253.81
2023-02-24T01:55:27.721Z,100248.44
2023-02-24T01:57:54.032Z,100243.31
2023-02-24T02:00:20.706Z,100236.28
2023-02-24T02:02:47.738Z,100238.66
2023-02-24T02:05:14.236Z,100234.69
2023-02-24T02:07:41.172Z,100241.91
2023-02-24T02:10:07.569Z,100237.03
2023-02-24T02:12:34.653Z,100230.84
2023-02-24T02:15:01.689Z,100238.34
2023-02-24T02:17:28.039Z,100233.78
2023-02-24T02:19:54.406Z,100221.63
2023-02-24T02:22:20.715Z,100225.94
2023-02-24T02:24:47.595Z,100214.38
2023-02-24T02:27:13.924Z,100222.69
2023-02-24T02:29:40.581Z,100221.06
2023-02-24T02:32:07.196Z,100206.78
2023-02-24T02:34:33.638Z,100205.97
2023-02-24T02:37:00.280Z,100200.59
2023-02-24T02:39:27.000Z,100199.44
2023-02-24T02:41:53.737Z,100192.78
2023-02-24T02:44:20.064Z,100195.47
2023-02-24T02:46:46.487Z,100198.66
2023-02-24T02:49:12.797Z,100190.00
2023-02-24T02:51:39.372Z,100191.06
2023-02-24T02:54:05.816Z,100192.91
2023-02-24T02:56:32.456Z,100186.75
2023-02-24T02:58:59.247Z,100184.25
2023-02-24T03:01:25.650Z,100183.13
2023-02-24T03:03:52.061Z,100175.63
2023-02-24T03:06:18.532Z,100176.13
2023-02-24T03:08:44.846Z,100174.50
2023-02-24T03:11:11.236Z,100170.75
2023-02-24T03:13:37.532Z,100169.91
2023-02-24T03:16:04.045Z,100166.66
2023-02-24T03:18:30.482Z,100167.47
2023-02-24T03:20:57.376Z,100166.91
2023-02-24T03:23:24.035Z,100158.25
2023-02-24T03:25:50.471Z,100162.59
2023-02-24T03:28:16.806Z,100164.22
2023-02-24T03:30:44.582Z,100167.16
2023-02-24T03:33:11.104Z,100165.53
2023-02-24T03:35:37.439Z,100168.44
2023-02-24T03:38:04.101Z,100178.38
2023-02-24T03:40:30.594Z,100164.16
2023-02-24T03:42:57.154Z,100174.31
2023-02-24T03:45:23.741Z,100168.94
2023-02-24T03:47:50.134Z,100174.00
2023-02-24T03:50:16.962Z,100167.53
2023-02-24T03:52:43.392Z,100174.00
2023-02-24T03:55:09.818Z,100170.47
2023-02-24T03:57:36.779Z,100171.53
2023-02-24T04:00:03.207Z,100165.59
2023-02-24T04:02:29.804Z,100172.03
2023-02-24T04:04:56.295Z,100181.16
2023-02-24T04:07:22.994Z,100169.56
2023-02-24T04:09:49.357Z,100175.44
2023-02-24T04:12:16.018Z,100178.47
2023-02-24T04:14:42.426Z,100176.25
2023-02-24T04:17:09.144Z,100179.75
2023-02-24T04:19:35.498Z,100181.63
2023-02-24T04:22:01.881Z,100175.44
2023-02-24T04:24:28.314Z,100173.00
2023-02-24T04:26:55.201Z,100168.69
2023-02-24T04:29:21.479Z,100164.63
2023-02-24T04:31:48.003Z,100165.41
2023-02-24T04:34:15.224Z,100167.03
2023-02-24T04:36:41.565Z,100167.53
2023-02-24T04:39:07.982Z,100167.53
2023-02-24T04:41:34.447Z,100164.84
2023-02-24T04:44:01.038Z,100169.16
2023-02-24T04:46:27.370Z,100157.25
2023-02-24T04:48:54.218Z,100164.03
2023-02-24T04:51:21.415Z,100159.97
2023-02-24T04:53:47.921Z,100166.41
2023-02-24T04:56:14.415Z,100168.25
2023-02-24T04:58:40.764Z,100162.56
2023-02-24T05:01:07.063Z,100160.66
2023-02-24T05:03:33.687Z,100164.19
2023-02-24T05:06:00.225Z,100160.09
2023-02-24T05:08:27.189Z,100169.00
2023-02-24T05:10:53.518Z,100160.34
2023-02-24T05:13:19.876Z,100157.09
2023-02-24T05:15:46.504Z,100157.66
2023-02-24T05:18:12.851Z,100153.09
2023-02-24T05:20:39.564Z,100151.72
2023-02-24T05:23:05.921Z,100151.50
2023-02-24T05:25:32.276Z,100145.75
2023-02-24T05:27:58.791Z,100156.50
2023-02-24T05:30:25.212Z,100143.31
2023-02-24T05:32:51.628Z,100143.31
2023-02-24T05:35:18.455Z,100134.47
2023-02-24T05:37:45.014Z,100124.75
2023-02-24T05:40:11.425Z,100125.56
2023-02-24T05:42:37.778Z,100136.31
2023-02-24T05:45:04.421Z,100135.50
2023-02-24T05:47:30.747Z,100135.75
2023-02-24T05:49:57.030Z,100133.06
2023-02-24T05:52:23.385Z,100136.56
2023-02-24T05:54:49.919Z,100128.72
2023-02-24T05:57:16.253Z,100125.25
2023-02-24T05:59:42.599Z,100131.91
2023-02-24T06:02:09.066Z,100137.28
2023-02-24T06:04:35.840Z,100129.47
2023-02-24T06:07:02.271Z,100122.47
2023-02-24T06:09:29.005Z,100126.19
2023-02-24T06:11:55.429Z,100117.56
2023-02-24T06:14:21.740Z,100114.88
2023-02-24T06:16:48.156Z,100125.63
2023-02-24T06:19:16.782Z,100120.25
2023-02-24T06:21:43.971Z,100114.28
2023-02-24T06:24:10.304Z,100107.91
2023-02-24T06:26:36.884Z,100105.69
2023-02-24T06:29:03.383Z,100108.94
2023-02-24T06:31:29.766Z,100109.44
2023-02-24T06:33:56.267Z,100106.75
2023-02-24T06:36:23.104Z,100105.91
2023-02-24T06:38:49.501Z,100108.84
2023-02-24T06:41:16.175Z,100103.47
2023-02-24T06:43:42.466Z,100099.63
2023-02-24T06:46:09.114Z,100089.53
2023-02-24T06:48:35.547Z,100098.06
2023-02-24T06:51:01.950Z,100084.88
2023-02-24T06:53:28.315Z,100098.31
2023-02-24T06:55:54.963Z,100084.88
2023-02-24T06:58:21.654Z,100081.13
2023-02-24T07:00:48.157Z,100086.50
2023-02-24T07:03:15.030Z,100081.13
2023-02-24T07:05:41.852Z,100076.59
2023-02-24T07:08:08.572Z,100082.19
2023-02-24T07:10:34.956Z,100081.13
2023-02-24T07:13:01.303Z,100069.84
2023-02-24T07:15:27.886Z,100067.16
2023-02-24T07:17:54.287Z,100069.84
2023-02-24T07:20:20.649Z,100073.56
2023-02-24T07:22:47.835Z,100073.56
2023-02-24T07:25:14.281Z,100071.13
2023-02-24T07:27:40.759Z,100063.88
2023-02-24T07:30:07.343Z,100064.09
2023-02-24T07:32:33.833Z,100063.31
2023-02-24T07:35:00.214Z,100056.31
2023-02-24T07:37:26.816Z,100057.34
2023-02-24T07:39:53.382Z,100053.03
2023-02-24T07:42:19.749Z,100047.69
2023-02-24T07:44:46.166Z,100039.03
2023-02-24T07:47:12.851Z,100025.63
2023-02-24T07:49:39.484Z,100022.09
2023-02-24T07:52:05.961Z,100026.63
2023-02-24T07:54:32.291Z,100018.59
2023-02-24T07:56:58.674Z,100010.81
2023-02-24T07:59:25.389Z,100017.19
2023-02-24T08:01:51.825Z,100011.84
2023-02-24T08:04:18.433Z,100008.59
2023-02-24T08:06:47.821Z,100001.34
2023-02-24T08:09:14.555Z,100006.69
2023-02-24T08:11:41.359Z,100006.69
2023-02-24T08:14:07.884Z,99998.91
2023-02-24T08:16:34.258Z,99996.22
2023-02-24T08:19:01.056Z,100001.59
2023-02-24T08:21:27.589Z,99988.41
2023-02-24T08:23:53.941Z,99983.59
2023-02-24T08:26:20.401Z,99986.53
2023-02-24T08:28:47.344Z,99982.81
2023-02-24T08:31:14.002Z,99972.78
2023-02-24T08:33:40.591Z,99966.59
2023-02-24T08:36:07.478Z,99965.78
2023-02-24T08:38:33.941Z,99959.38
2023-02-24T08:41:00.309Z,99961.81
2023-02-24T08:43:27.197Z,99954.00
2023-02-24T08:45:53.705Z,99947.81
2023-02-24T08:48:20.009Z,99947.00
2023-02-24T08:50:46.310Z,99946.19
2023-02-24T08:53:12.773Z,99941.63
2023-02-24T08:55:39.081Z,99933.81
2023-02-24T08:58:05.650Z,99939.19
2023-02-24T09:00:32.330Z,99933.00
2023-02-24T09:02:58.996Z,99924.94
2023-02-24T09:05:25.534Z,99919.56
2023-02-24T09:07:52.142Z,99918.78
2023-02-24T09:10:18.760Z,99909.91
2023-02-24T09:12:45.602Z,99908.06
2023-02-24T09:15:12.202Z,99900.25
2023-02-24T09:17:38.572Z,99901.84
2023-02-24T09:20:05.052Z,99899.16
2023-02-24T09:22:31.598Z,99899.41
2023-02-24T09:24:58.227Z,99895.94
2023-02-24T09:27:25.049Z,99877.94
2023-02-24T09:29:51.369Z,99879.00
2023-02-24T09:32:17.900Z,99876.56
2023-02-24T09:34:44.718Z,99868.50
2023-02-24T09:37:11.134Z,99868.75
2023-02-24T09:39:37.456Z,99864.44
2023-02-24T09:42:03.804Z,99863.38
2023-02-24T09:44:30.132Z,99856.16
2023-02-24T09:46:56.581Z,99859.91
2023-02-24T09:49:23.023Z,99849.16
2023-02-24T09:51:49.671Z,99842.16
2023-02-24T09:54:16.084Z,99840.28
2023-02-24T09:56:42.870Z,99839.47
2023-02-24T09:59:09.469Z,99834.09
2023-02-24T10:01:35.893Z,99824.44
2023-02-24T10:04:08.774Z,99836.00
2023-02-24T10:06:45.004Z,99829.81
2023-02-24T10:09:11.588Z,99815.00
2023-02-24T10:11:38.110Z,99818.50
2023-02-24T10:14:04.472Z,99816.63
2023-02-24T10:16:30.893Z,99811.00
2023-02-24T10:18:57.232Z,99804.84
2023-02-24T10:21:23.810Z,99804.84
2023-02-24T10:23:54.879Z,99802.97
2023-02-24T10:26:21.534Z,99796.81
2023-02-24T10:28:48.305Z,99791.44
2023-02-24T10:31:14.894Z,99778.81
2023-02-24T10:33:41.380Z,99779.88
2023-02-24T10:36:08.026Z,99775.34
2023-02-24T10:38:34.463Z,99773.69
2023-02-24T10:41:01.029Z,99756.56
2023-02-24T10:43:27.467Z,99759.22
2023-02-24T10:45:54.418Z,99756.56
2023-02-24T10:48:24.502Z,99747.44
2023-02-24T10:50:56.477Z,99753.28
2023-02-24T10:53:23.052Z,99745.22
2023-02-24T10:55:49.670Z,99743.63
2023-02-24T10:58:17.244Z,99737.19
2023-02-24T11:00:43.540Z,99727.75
2023-02-24T11:03:09.887Z,99728.31
2023-02-24T11:05:36.245Z,99725.63
2023-02-24T11:08:02.905Z,99718.41
2023-02-24T11:10:29.283Z,99714.09
2023-02-24T11:13:04.238Z,99713.03
2023-02-24T11:15:35.454Z,99705.22
2023-02-24T11:18:02.097Z,99705.22
2023-02-24T11:20:39.218Z,99693.69
2023-02-24T11:23:14.450Z,99686.69
2023-02-24T11:25:40.864Z,99685.06
2023-02-24T11:28:07.308Z,99685.31
2023-02-24T11:30:33.858Z,99676.47
2023-02-24T11:33:00.348Z,99681.00
2023-02-24T11:35:26.726Z,99672.13
2023-02-24T11:37:53.095Z,99666.78
2023-02-24T11:40:19.946Z,99660.03
2023-02-24T11:42:46.776Z,99647.44
2023-02-24T11:45:13.758Z,99643.94
2023-02-24T11:47:40.304Z,99643.94
2023-02-24T11:50:06.814Z,99634.28
2023-02-24T11:52:33.391Z,99628.09
2023-02-24T11:55:00.337Z,99626.47
2023-02-24T11:57:27.147Z,99624.03
2023-02-24T11:59:53.726Z,99608.75
2023-02-24T12:02:20.195Z,99611.44
2023-02-24T12:04:46.976Z,99607.16
2023-02-24T12:07:13.448Z,99600.94
2023-02-24T12:09:40.151Z,99599.09
2023-02-24T12:12:06.685Z,99581.38
2023-02-24T12:14:33.041Z,99580.56
2023-02-24T12:16:59.669Z,99570.91
2023-02-24T12:19:26.479Z,99570.91
2023-02-24T12:21:53.659Z,99564.72
2023-02-24T12:24:20.287Z,99557.50
2023-02-24T12:26:46.662Z,99554.81
2023-02-24T12:29:13.087Z,99553.44
2023-02-24T12:31:39.567Z,99555.28
2023-02-24T12:34:06.186Z,99543.75
2023-02-24T12:36:32.771Z,99536.50
2023-02-24T12:38:59.169Z,99533.84
2023-02-24T12:41:25.837Z,99530.34
2023-02-24T12:43:52.250Z,99524.19
2023-02-24T12:46:19.162Z,99519.84
2023-02-24T12:48:45.600Z,99518.22
2023-02-24T12:51:11.965Z,99505.66
2023-02-24T12:53:38.309Z,99510.19
2023-02-24T12:56:05.300Z,99495.16
2023-02-24T12:58:31.777Z,99499.47
2023-02-24T13:00:58.247Z,99500.53
2023-02-24T13:03:24.823Z,99490.03
2023-02-24T13:05:51.069Z,99491.94
2023-02-24T13:08:17.938Z,99479.31
2023-02-24T13:10:44.432Z,99470.47
2023-02-24T13:13:10.890Z,99473.16
2023-02-24T13:15:37.412Z,99467.78
2023-02-24T13:18:03.815Z,99467.78
2023-02-24T13:20:30.904Z,99458.09
2023-02-24T13:22:57.288Z,99468.84
2023-02-24T13:25:23.678Z,99460.00
2023-02-24T13:27:50.124Z,99468.03
2023-02-24T13:30:16.862Z,99463.47
2023-02-24T13:32:43.403Z,99468.03
2023-02-24T13:35:10.193Z,99461.84
2023-02-24T13:37:37.011Z,99463.72
2023-02-24T13:40:03.345Z,99462.94
2023-02-24T13:42:29.865Z,99469.06
2023-02-24T13:44:56.225Z,99462.09
2023-02-24T13:47:22.653Z,99467.47
2023-02-24T13:49:49.296Z,99451.38
2023-02-24T13:52:15.693Z,99457.56
2023-02-24T13:54:42.152Z,99456.75
2023-02-24T13:57:08.570Z,99444.41
2023-02-24T13:59:34.971Z,99452.44
2023-02-24T14:02:01.352Z,99443.56
2023-02-24T14:04:29.552Z,99450.00
2023-02-24T14:06:56.057Z,99451.63
2023-02-24T14:09:22.780Z,99446.25
2023-02-24T14:11:49.628Z,99440.09
2023-02-24T14:14:16.006Z,99442.78
2023-02-24T14:16:42.663Z,99455.38
2023-02-24T14:19:09.609Z,99440.91
2023-02-24T14:21:36.027Z,99436.59
2023-02-24T14:24:02.422Z,99436.59
2023-02-24T14:26:29.031Z,99427.75
2023-02-24T14:28:55.389Z,99434.16
2023-02-24T14:31:21.704Z,99431.47
2023-02-24T14:33:48.153Z,99419.16
2023-02-24T14:36:14.516Z,99410.28
2023-02-24T14:38:41.346Z,99414.03
2023-02-24T14:41:07.719Z,99409.50
2023-02-24T14:43:34.795Z,99410.28
2023-02-24T14:46:01.289Z,99408.66
2023-02-24T14:48:27.991Z,99399.56
2023-02-24T14:50:54.437Z,99391.50
2023-02-24T14:53:21.166Z,99381.84
2023-02-24T14:55:47.813Z,99387.22
2023-02-24T14:58:14.413Z,99374.88
2023-02-24T15:00:40.778Z,99377.56
2023-02-24T15:03:07.132Z,99373.00
2023-02-24T15:05:33.939Z,99358.78
2023-02-24T15:08:00.405Z,99357.19
2023-02-24T15:10:26.888Z,99354.25
2023-02-24T15:12:53.284Z,99348.31
2023-02-24T15:15:19.766Z,99342.94
2023-02-24T15:17:46.339Z,99331.41
2023-02-24T15:20:12.991Z,99322.56
2023-02-24T15:22:39.700Z,99331.97
2023-02-24T15:25:06.122Z,99324.19
2023-02-24T15:27:32.612Z,99311.84
2023-02-24T15:29:58.982Z,99309.16
2023-02-24T15:32:25.586Z,99309.41
2023-02-24T15:34:51.987Z,99310.22
2023-02-24T15:37:18.605Z,99302.19
2023-02-24T15:39:45.217Z,99303.22
2023-02-24T15:42:11.847Z,99294.38
2023-02-24T15:44:38.208Z,99288.78
2023-02-24T15:47:05.259Z,99295.19
2023-02-24T15:49:31.629Z,99279.09
2023-02-24T15:51:58.035Z,99289.81
2023-02-24T15:54:24.483Z,99280.97
2023-02-24T15:56:51.252Z,99276.69
2023-02-24T15:59:18.214Z,99271.34
2023-02-24T16:01:44.543Z,99262.22
2023-02-24T16:04:10.969Z,99262.47
2023-02-24T16:06:37.451Z,99257.09
2023-02-24T16:09:03.875Z,99258.19
2023-02-24T16:11:30.806Z,99246.38
2023-02-24T16:13:57.537Z,99242.88
2023-02-24T16:16:24.237Z,99248.25
2023-02-24T16:18:51.487Z,99246.63
2023-02-24T16:21:18.045Z,99238.59
2023-02-24T16:23:44.651Z,99236.97
2023-02-24T16:26:11.026Z,99231.63
2023-02-24T16:28:38.140Z,99228.13
2023-02-24T16:31:04.623Z,99227.31
2023-02-24T16:33:38.841Z,99219.28
2023-02-24T16:36:10.950Z,99224.66
2023-02-24T16:38:37.529Z,99221.97
2023-02-24T16:41:03.818Z,99217.63
2023-02-24T16:43:30.180Z,99221.16
2023-02-24T16:45:56.591Z,99216.84
2023-02-24T16:48:22.998Z,99216.03
2023-02-24T16:50:49.372Z,99214.44
2023-02-24T16:53:15.938Z,99213.59
2023-02-24T16:55:42.280Z,99214.97
2023-02-24T16:58:09.298Z,99215.22
2023-02-24T17:00:35.607Z,99204.78
2023-02-24T17:03:01.953Z,99202.09
2023-02-24T17:05:29.033Z,99207.44
2023-02-24T17:07:55.461Z,99207.44
2023-02-24T17:10:22.085Z,99203.13
2023-02-24T17:12:49.175Z,99203.13
2023-02-24T17:15:15.537Z,99203.13
2023-02-24T17:17:42.340Z,99201.28
2023-02-24T17:20:09.260Z,99199.66
2023-02-24T17:22:37.168Z,99190.81
2023-02-24T17:25:03.653Z,99189.19
2023-02-24T17:27:30.704Z,99184.66
2023-02-24T17:29:57.447Z,99190.00
2023-02-24T17:32:23.944Z,99187.59
2023-02-24T17:34:50.600Z,99176.84
2023-02-24T17:37:17.120Z,99178.47
2023-02-24T17:39:43.518Z,99178.72
2023-02-24T17:42:10.049Z,99168.00
2023-02-24T17:44:36.578Z,99168.81
2023-02-24T17:47:02.966Z,99156.47
2023-02-24T17:49:29.331Z,99152.16
2023-02-24T17:51:55.762Z,99159.13
2023-02-24T17:54:22.083Z,99154.06
2023-02-24T17:56:48.655Z,99149.50
2023-02-24T17:59:15.498Z,99155.66
2023-02-24T18:01:42.271Z,99152.16
2023-02-24T18:04:09.165Z,99152.16
2023-02-24T18:06:35.510Z,99149.75
2023-02-24T18:09:02.052Z,99147.06
2023-02-24T18:11:28.694Z,99140.09
2023-02-24T18:13:55.385Z,99140.09
2023-02-24T18:16:22.597Z,99136.34
2023-02-24T18:18:49.222Z,99130.97
2023-02-24T18:21:15.554Z,99132.03
2023-02-24T18:23:41.945Z,99134.72
2023-02-24T18:26:08.305Z,99122.41
2023-02-24T18:28:34.708Z,99122.41
2023-02-24T18:31:01.182Z,99118.91
2023-02-24T18:33:27.731Z,99120.78
2023-02-24T18:35:54.164Z,99119.97
2023-02-24T18:38:20.672Z,99099.59
2023-02-24T18:40:46.977Z,99101.47
2023-02-24T18:43:13.613Z,99102.28
2023-02-24T18:45:39.959Z,99096.94
2023-02-24T18:48:06.909Z,99098.78
2023-02-24T18:50:33.645Z,99094.25
2023-02-24T18:53:00.142Z,99096.09
2023-02-24T18:55:26.497Z,99085.63
2023-02-24T18:57:53.281Z,99090.75
2023-02-24T19:00:20.053Z,99084.84
2023-02-24T19:02:47.485Z,99082.16
2023-02-24T19:05:14.034Z,99082.16
2023-02-24T19:07:40.568Z,99087.53
2023-02-24T19:10:06.900Z,99070.88
2023-02-24T19:12:33.284Z,99071.69
2023-02-24T19:14:59.640Z,99067.13
2023-02-24T19:17:26.769Z,99055.88
2023-02-24T19:19:53.286Z,99054.28
2023-02-24T19:22:19.745Z,99050.50
2023-02-24T19:24:46.114Z,99044.34
2023-02-24T19:27:13.022Z,99047.00
2023-02-24T19:29:39.325Z,99048.66
2023-02-24T19:32:06.018Z,99047.00
2023-02-24T19:34:33.013Z,99043.56
2023-02-24T19:36:59.578Z,99047.84
2023-02-24T19:39:26.366Z,99041.13
2023-02-24T19:41:52.682Z,99032.00
2023-02-24T19:44:19.526Z,99032.00
2023-02-24T19:46:46.040Z,99025.88
2023-02-24T19:49:12.933Z,99033.09
2023-02-24T19:51:39.288Z,99027.72
2023-02-24T19:54:05.617Z,99027.16
2023-02-24T19:56:32.397Z,99026.13
2023-02-24T19:58:59.476Z,99028.78
2023-02-24T20:01:25.856Z,99020.75
2023-02-24T20:03:52.295Z,99019.13
2023-02-24T20:06:18.736Z,99019.13
2023-02-24T20:08:45.745Z,99015.66
2023-02-24T20:11:12.076Z,99010.28
2023-02-24T20:13:38.640Z,99006.00
2023-02-24T20:16:04.996Z,98998.75
2023-02-24T20:18:31.743Z,99003.03
2023-02-24T20:20:58.234Z,99004.13
2023-02-24T20:23:24.530Z,98999.84
2023-02-24T20:25:50.917Z,98995.28
2023-02-24T20:28:17.352Z,98996.63
2023-02-24T20:30:43.674Z,98999.00
2023-02-24T20:33:10.292Z,98992.88
2023-02-24T20:35:38.018Z,98989.63
2023-02-24T20:38:04.486Z,98997.16
2023-02-24T20:40:30.915Z,98985.91
2023-02-24T20:42:57.924Z,98991.25
2023-02-24T20:45:24.318Z,98977.88
2023-02-24T20:47:50.638Z,98982.41
2023-02-24T20:50:17.079Z,98977.31
2023-02-24T20:52:43.516Z,98967.16
2023-02-24T20:55:09.929Z,98962.03
2023-02-24T20:57:36.475Z,98962.81
2023-02-24T21:00:03.821Z,98959.38
2023-02-24T21:02:30.774Z,98957.47
2023-02-24T21:04:57.213Z,98959.63
2023-02-24T21:07:23.588Z,98947.00
2023-02-24T21:09:50.017Z,98948.91
2023-02-24T21:12:16.475Z,98950.72
2023-02-24T21:14:43.264Z,98950.72
2023-02-24T21:17:09.634Z,98944.59
2023-02-24T21:19:36.010Z,98943.53
2023-02-24T21:22:02.604Z,98945.38
2023-02-24T21:24:29.052Z,98934.91
2023-02-24T21:26:55.543Z,98925.28
2023-02-24T21:29:22.054Z,98929.81
2023-02-24T21:31:48.998Z,98926.88
2023-02-24T21:34:15.446Z,98918.31
2023-02-24T21:36:41.765Z,98911.63
2023-02-24T21:39:08.074Z,98914.28
2023-02-24T21:41:34.402Z,98904.66
2023-02-24T21:44:00.795Z,98907.59
2023-02-24T21:46:27.169Z,98897.94
2023-02-24T21:48:53.566Z,98904.91
2023-02-24T21:51:20.056Z,98896.06
2023-02-24T21:53:46.448Z,98894.19
2023-02-24T21:56:13.202Z,98888.84
2023-02-24T21:58:39.533Z,98884.56
2023-02-24T22:01:05.880Z,98881.31
2023-02-24T22:03:32.293Z,98874.63
2023-02-24T22:05:58.650Z,98876.50
2023-02-24T22:08:25.436Z,98866.84
2023-02-24T22:10:51.787Z,98865.25
2023-02-24T22:13:18.167Z,98866.31
2023-02-24T22:15:44.851Z,98860.97
2023-02-24T22:18:11.400Z,98855.34
2023-02-24T22:20:37.735Z,98851.06
2023-02-24T22:23:04.070Z,98852.91
2023-02-24T22:25:30.392Z,98850.78
2023-02-24T22:27:56.742Z,98855.59
2023-02-24T22:30:23.260Z,98848.38
2023-02-24T22:32:49.807Z,98844.88
2023-02-24T22:35:16.186Z,98850.25
2023-02-24T22:37:42.637Z,98845.13
2023-02-24T22:40:09.160Z,98838.19
2023-02-24T22:42:35.596Z,98835.50
2023-02-24T22:45:02.241Z,98835.25
2023-02-24T22:47:28.602Z,98835.75
2023-02-24T22:49:54.963Z,98825.03
2023-02-24T22:52:21.318Z,98818.88
2023-02-24T22:54:47.917Z,98824.22
2023-02-24T22:57:14.214Z,98828.78
2023-02-24T22:59:40.577Z,98819.69
2023-02-24T23:02:07.052Z,98816.19
2023-02-24T23:04:33.470Z,98818.09
2023-02-24T23:06:59.807Z,98812.16
2023-02-24T23:09:27.241Z,98810.31
2023-02-24T23:11:53.592Z,98816.44
2023-02-24T23:14:19.955Z,98806.56
2023-02-24T23:16:46.409Z,98802.53
2023-02-24T23:19:13.136Z,98804.13
2023-02-24T23:21:39.813Z,98807.63
2023-02-24T23:24:06.121Z,98799.03
2023-02-24T23:26:32.577Z,98803.34
2023-02-24T23:28:58.962Z,98808.97
2023-02-24T23:31:25.541Z,98795.56
2023-02-24T23:33:51.934Z,98808.13
2023-02-24T23:36:18.572Z,98802.53
2023-02-24T23:38:45.221Z,98799.03
2023-02-24T23:41:11.647Z,98794.75
2023-02-24T23:43:38.149Z,98790.22
2023-02-24T23:46:05.086Z,98794.75
2023-02-24T23:48:31.445Z,98793.41
2023-02-24T23:50:57.866Z,98789.66
2023-02-24T23:53:24.426Z,98790.72
2023-02-24T23:55:50.912Z,98786.19
2023-02-24T23:58:17.344Z,98789.66
